sensor_id;sensor_type;location;lat;lon;timestamp;P1;durP1;ratioP1;P2;durP2;ratioP2
70414;SDS011;57837;52.064;113.478;2023-11-18T00:00:57;192.80;;;70.15;;
70414;SDS011;57837;52.064;113.478;2023-11-18T00:04:01;173.57;;;63.60;;
70414;SDS011;57837;52.064;113.478;2023-11-18T00:07:05;180.00;;;61.83;;
70414;SDS011;57837;52.064;113.478;2023-11-18T00:10:09;155.98;;;61.72;;
70414;SDS011;57837;52.064;113.478;2023-11-18T00:13:14;185.70;;;68.53;;
70414;SDS011;57837;52.064;113.478;2023-11-18T00:16:19;168.20;;;65.90;;
70414;SDS011;57837;52.064;113.478;2023-11-18T00:19:22;192.45;;;70.53;;
70414;SDS011;57837;52.064;113.478;2023-11-18T00:22:27;181.93;;;72.35;;
70414;SDS011;57837;52.064;113.478;2023-11-18T00:25:31;209.60;;;76.78;;
70414;SDS011;57837;52.064;113.478;2023-11-18T00:28:36;177.80;;;67.55;;
70414;SDS011;57837;52.064;113.478;2023-11-18T00:31:40;186.10;;;67.88;;
70414;SDS011;57837;52.064;113.478;2023-11-18T00:34:44;204.75;;;78.80;;
70414;SDS011;57837;52.064;113.478;2023-11-18T00:37:47;232.77;;;88.43;;
70414;SDS011;57837;52.064;113.478;2023-11-18T00:40:51;263.85;;;92.57;;
70414;SDS011;57837;52.064;113.478;2023-11-18T00:43:55;225.77;;;75.78;;
70414;SDS011;57837;52.064;113.478;2023-11-18T00:46:59;182.30;;;69.10;;
70414;SDS011;57837;52.064;113.478;2023-11-18T00:50:03;177.80;;;69.50;;
70414;SDS011;57837;52.064;113.478;2023-11-18T00:53:11;230.88;;;92.82;;
70414;SDS011;57837;52.064;113.478;2023-11-18T00:56:15;225.23;;;87.00;;
70414;SDS011;57837;52.064;113.478;2023-11-18T00:59:21;277.38;;;111.28;;
70414;SDS011;57837;52.064;113.478;2023-11-18T01:02:24;357.67;;;152.35;;
70414;SDS011;57837;52.064;113.478;2023-11-18T01:05:30;366.88;;;144.98;;
70414;SDS011;57837;52.064;113.478;2023-11-18T01:08:34;340.13;;;127.10;;
70414;SDS011;57837;52.064;113.478;2023-11-18T01:11:38;264.25;;;104.93;;
70414;SDS011;57837;52.064;113.478;2023-11-18T01:15:03;299.35;;;120.00;;
70414;SDS011;57837;52.064;113.478;2023-11-18T01:18:07;320.63;;;126.23;;
70414;SDS011;57837;52.064;113.478;2023-11-18T01:21:12;221.23;;;95.72;;
70414;SDS011;57837;52.064;113.478;2023-11-18T01:24:16;262.25;;;110.28;;
70414;SDS011;57837;52.064;113.478;2023-11-18T01:27:19;292.17;;;115.70;;
70414;SDS011;57837;52.064;113.478;2023-11-18T01:30:24;265.10;;;113.43;;
70414;SDS011;57837;52.064;113.478;2023-11-18T01:33:30;260.05;;;103.18;;
70414;SDS011;57837;52.064;113.478;2023-11-18T01:36:37;267.08;;;108.70;;
70414;SDS011;57837;52.064;113.478;2023-11-18T01:39:40;287.83;;;114.23;;
70414;SDS011;57837;52.064;113.478;2023-11-18T01:42:44;286.80;;;112.05;;
70414;SDS011;57837;52.064;113.478;2023-11-18T01:45:48;287.50;;;109.70;;
70414;SDS011;57837;52.064;113.478;2023-11-18T01:48:52;270.73;;;106.43;;
70414;SDS011;57837;52.064;113.478;2023-11-18T01:51:55;279.35;;;98.32;;
70414;SDS011;57837;52.064;113.478;2023-11-18T01:55:00;252.95;;;101.15;;
70414;SDS011;57837;52.064;113.478;2023-11-18T01:58:06;273.52;;;108.90;;
70414;SDS011;57837;52.064;113.478;2023-11-18T02:01:12;229.65;;;99.20;;
70414;SDS011;57837;52.064;113.478;2023-11-18T02:04:19;272.88;;;105.60;;
70414;SDS011;57837;52.064;113.478;2023-11-18T02:07:25;277.83;;;113.28;;
70414;SDS011;57837;52.064;113.478;2023-11-18T02:10:29;271.47;;;110.97;;
70414;SDS011;57837;52.064;113.478;2023-11-18T02:13:34;268.45;;;106.80;;
70414;SDS011;57837;52.064;113.478;2023-11-18T02:16:41;245.90;;;100.40;;
70414;SDS011;57837;52.064;113.478;2023-11-18T02:19:48;274.55;;;115.38;;
70414;SDS011;57837;52.064;113.478;2023-11-18T02:22:53;270.97;;;111.17;;
70414;SDS011;57837;52.064;113.478;2023-11-18T02:25:57;269.45;;;114.10;;
70414;SDS011;57837;52.064;113.478;2023-11-18T02:29:01;304.20;;;126.45;;
70414;SDS011;57837;52.064;113.478;2023-11-18T02:32:13;334.55;;;140.13;;
70414;SDS011;57837;52.064;113.478;2023-11-18T02:35:38;306.60;;;131.43;;
70414;SDS011;57837;52.064;113.478;2023-11-18T02:38:51;318.38;;;132.77;;
70414;SDS011;57837;52.064;113.478;2023-11-18T02:41:57;323.13;;;128.88;;
70414;SDS011;57837;52.064;113.478;2023-11-18T02:45:07;291.70;;;128.13;;
70414;SDS011;57837;52.064;113.478;2023-11-18T02:48:14;289.45;;;119.88;;
70414;SDS011;57837;52.064;113.478;2023-11-18T02:51:18;280.38;;;116.93;;
70414;SDS011;57837;52.064;113.478;2023-11-18T02:54:22;290.40;;;120.82;;
70414;SDS011;57837;52.064;113.478;2023-11-18T02:57:26;302.27;;;127.37;;
70414;SDS011;57837;52.064;113.478;2023-11-18T03:00:30;292.08;;;126.00;;
70414;SDS011;57837;52.064;113.478;2023-11-18T03:03:34;325.70;;;136.48;;
70414;SDS011;57837;52.064;113.478;2023-11-18T03:06:38;348.13;;;137.00;;
70414;SDS011;57837;52.064;113.478;2023-11-18T03:09:43;308.83;;;126.63;;
70414;SDS011;57837;52.064;113.478;2023-11-18T03:12:53;318.33;;;129.68;;
70414;SDS011;57837;52.064;113.478;2023-11-18T03:15:57;303.20;;;125.25;;
70414;SDS011;57837;52.064;113.478;2023-11-18T03:19:01;298.15;;;124.13;;
70414;SDS011;57837;52.064;113.478;2023-11-18T03:22:07;301.25;;;125.20;;
70414;SDS011;57837;52.064;113.478;2023-11-18T03:25:12;277.47;;;111.37;;
70414;SDS011;57837;52.064;113.478;2023-11-18T03:28:16;266.88;;;110.18;;
70414;SDS011;57837;52.064;113.478;2023-11-18T03:31:19;253.07;;;102.90;;
70414;SDS011;57837;52.064;113.478;2023-11-18T03:34:24;233.38;;;97.05;;
70414;SDS011;57837;52.064;113.478;2023-11-18T03:37:27;214.02;;;89.07;;
70414;SDS011;57837;52.064;113.478;2023-11-18T03:40:30;228.97;;;93.97;;
70414;SDS011;57837;52.064;113.478;2023-11-18T03:43:34;226.18;;;93.45;;
70414;SDS011;57837;52.064;113.478;2023-11-18T03:46:38;233.32;;;96.57;;
70414;SDS011;57837;52.064;113.478;2023-11-18T03:49:41;224.65;;;93.28;;
70414;SDS011;57837;52.064;113.478;2023-11-18T03:52:45;252.30;;;106.00;;
70414;SDS011;57837;52.064;113.478;2023-11-18T03:55:48;226.83;;;91.83;;
70414;SDS011;57837;52.064;113.478;2023-11-18T03:58:54;251.82;;;108.47;;
70414;SDS011;57837;52.064;113.478;2023-11-18T04:01:58;213.65;;;88.22;;
70414;SDS011;57837;52.064;113.478;2023-11-18T04:05:02;192.65;;;82.95;;
70414;SDS011;57837;52.064;113.478;2023-11-18T04:08:07;187.90;;;78.05;;
70414;SDS011;57837;52.064;113.478;2023-11-18T04:11:11;163.53;;;69.67;;
70414;SDS011;57837;52.064;113.478;2023-11-18T04:14:15;175.60;;;71.95;;
70414;SDS011;57837;52.064;113.478;2023-11-18T04:17:20;190.75;;;75.40;;
70414;SDS011;57837;52.064;113.478;2023-11-18T04:20:24;185.23;;;77.65;;
70414;SDS011;57837;52.064;113.478;2023-11-18T04:23:27;204.82;;;85.32;;
70414;SDS011;57837;52.064;113.478;2023-11-18T04:26:32;222.00;;;91.50;;
70414;SDS011;57837;52.064;113.478;2023-11-18T04:29:36;284.48;;;113.53;;
70414;SDS011;57837;52.064;113.478;2023-11-18T04:32:40;255.25;;;104.40;;
70414;SDS011;57837;52.064;113.478;2023-11-18T04:35:46;244.05;;;102.45;;
70414;SDS011;57837;52.064;113.478;2023-11-18T04:38:50;210.80;;;87.93;;
70414;SDS011;57837;52.064;113.478;2023-11-18T04:41:54;180.17;;;78.07;;
70414;SDS011;57837;52.064;113.478;2023-11-18T04:44:59;186.45;;;75.93;;
70414;SDS011;57837;52.064;113.478;2023-11-18T04:48:03;200.40;;;84.80;;
70414;SDS011;57837;52.064;113.478;2023-11-18T04:51:08;195.18;;;79.70;;
70414;SDS011;57837;52.064;113.478;2023-11-18T04:54:12;189.80;;;80.90;;
70414;SDS011;57837;52.064;113.478;2023-11-18T04:57:16;191.57;;;81.90;;
70414;SDS011;57837;52.064;113.478;2023-11-18T05:00:20;203.52;;;82.80;;
70414;SDS011;57837;52.064;113.478;2023-11-18T05:03:24;190.23;;;82.82;;
70414;SDS011;57837;52.064;113.478;2023-11-18T05:06:30;209.70;;;90.68;;
70414;SDS011;57837;52.064;113.478;2023-11-18T05:09:34;207.10;;;87.55;;
70414;SDS011;57837;52.064;113.478;2023-11-18T05:12:38;295.07;;;128.37;;
70414;SDS011;57837;52.064;113.478;2023-11-18T05:15:56;302.23;;;121.95;;
70414;SDS011;57837;52.064;113.478;2023-11-18T05:19:00;262.10;;;110.78;;
70414;SDS011;57837;52.064;113.478;2023-11-18T05:22:04;181.98;;;75.15;;
70414;SDS011;57837;52.064;113.478;2023-11-18T05:25:07;189.15;;;82.10;;
70414;SDS011;57837;52.064;113.478;2023-11-18T05:28:12;204.50;;;84.60;;
70414;SDS011;57837;52.064;113.478;2023-11-18T05:31:15;212.13;;;93.45;;
70414;SDS011;57837;52.064;113.478;2023-11-18T05:34:20;218.60;;;92.05;;
70414;SDS011;57837;52.064;113.478;2023-11-18T05:37:24;171.23;;;71.95;;
70414;SDS011;57837;52.064;113.478;2023-11-18T05:40:28;168.10;;;70.78;;
70414;SDS011;57837;52.064;113.478;2023-11-18T05:43:32;160.67;;;67.67;;
70414;SDS011;57837;52.064;113.478;2023-11-18T05:46:43;229.75;;;100.55;;
70414;SDS011;57837;52.064;113.478;2023-11-18T05:49:50;199.88;;;85.55;;
70414;SDS011;57837;52.064;113.478;2023-11-18T05:52:53;196.52;;;83.85;;
70414;SDS011;57837;52.064;113.478;2023-11-18T05:55:58;163.00;;;70.47;;
70414;SDS011;57837;52.064;113.478;2023-11-18T05:59:02;197.70;;;81.93;;
70414;SDS011;57837;52.064;113.478;2023-11-18T06:02:09;191.65;;;83.50;;
70414;SDS011;57837;52.064;113.478;2023-11-18T06:05:21;209.95;;;89.68;;
70414;SDS011;57837;52.064;113.478;2023-11-18T06:08:29;202.63;;;86.55;;
70414;SDS011;57837;52.064;113.478;2023-11-18T06:11:34;189.48;;;81.07;;
70414;SDS011;57837;52.064;113.478;2023-11-18T06:14:42;177.13;;;74.00;;
70414;SDS011;57837;52.064;113.478;2023-11-18T06:17:48;137.27;;;59.85;;
70414;SDS011;57837;52.064;113.478;2023-11-18T06:20:52;129.48;;;55.15;;
70414;SDS011;57837;52.064;113.478;2023-11-18T06:23:56;81.55;;;39.65;;
70414;SDS011;57837;52.064;113.478;2023-11-18T06:27:00;95.95;;;38.53;;
70414;SDS011;57837;52.064;113.478;2023-11-18T06:30:04;78.20;;;36.70;;
70414;SDS011;57837;52.064;113.478;2023-11-18T06:33:11;90.93;;;39.67;;
70414;SDS011;57837;52.064;113.478;2023-11-18T06:39:22;82.63;;;36.30;;
70414;SDS011;57837;52.064;113.478;2023-11-18T06:42:32;82.45;;;34.90;;
70414;SDS011;57837;52.064;113.478;2023-11-18T06:45:41;101.23;;;43.43;;
70414;SDS011;57837;52.064;113.478;2023-11-18T06:48:47;104.45;;;41.72;;
70414;SDS011;57837;52.064;113.478;2023-11-18T06:51:52;94.45;;;38.63;;
70414;SDS011;57837;52.064;113.478;2023-11-18T06:54:56;108.18;;;41.78;;
70414;SDS011;57837;52.064;113.478;2023-11-18T06:58:00;93.53;;;41.10;;
70414;SDS011;57837;52.064;113.478;2023-11-18T07:01:05;97.13;;;42.97;;
70414;SDS011;57837;52.064;113.478;2023-11-18T07:04:09;119.43;;;47.60;;
70414;SDS011;57837;52.064;113.478;2023-11-18T07:07:13;100.65;;;42.05;;
70414;SDS011;57837;52.064;113.478;2023-11-18T07:10:17;99.57;;;40.33;;
70414;SDS011;57837;52.064;113.478;2023-11-18T07:13:23;112.22;;;40.80;;
70414;SDS011;57837;52.064;113.478;2023-11-18T07:16:27;100.80;;;41.07;;
70414;SDS011;57837;52.064;113.478;2023-11-18T07:19:31;104.35;;;42.95;;
70414;SDS011;57837;52.064;113.478;2023-11-18T07:22:36;109.50;;;46.13;;
70414;SDS011;57837;52.064;113.478;2023-11-18T07:25:40;119.38;;;47.35;;
70414;SDS011;57837;52.064;113.478;2023-11-18T07:28:46;111.22;;;44.20;;
70414;SDS011;57837;52.064;113.478;2023-11-18T07:31:50;98.20;;;42.87;;
70414;SDS011;57837;52.064;113.478;2023-11-18T07:34:54;93.80;;;39.78;;
70414;SDS011;57837;52.064;113.478;2023-11-18T07:37:58;89.32;;;39.00;;
70414;SDS011;57837;52.064;113.478;2023-11-18T07:41:02;98.75;;;41.22;;
70414;SDS011;57837;52.064;113.478;2023-11-18T07:44:06;100.57;;;41.63;;
70414;SDS011;57837;52.064;113.478;2023-11-18T07:47:10;101.97;;;40.50;;
70414;SDS011;57837;52.064;113.478;2023-11-18T07:50:14;85.25;;;33.67;;
70414;SDS011;57837;52.064;113.478;2023-11-18T07:53:19;63.83;;;27.00;;
70414;SDS011;57837;52.064;113.478;2023-11-18T07:56:23;62.17;;;24.83;;
70414;SDS011;57837;52.064;113.478;2023-11-18T07:59:27;57.08;;;21.63;;
70414;SDS011;57837;52.064;113.478;2023-11-18T08:02:31;53.03;;;22.33;;
70414;SDS011;57837;52.064;113.478;2023-11-18T08:05:35;61.55;;;22.52;;
70414;SDS011;57837;52.064;113.478;2023-11-18T08:08:39;54.28;;;20.70;;
70414;SDS011;57837;52.064;113.478;2023-11-18T08:11:43;64.10;;;22.45;;
70414;SDS011;57837;52.064;113.478;2023-11-18T08:14:47;56.45;;;21.40;;
70414;SDS011;57837;52.064;113.478;2023-11-18T08:17:50;58.90;;;21.40;;
70414;SDS011;57837;52.064;113.478;2023-11-18T08:20:54;56.15;;;22.45;;
70414;SDS011;57837;52.064;113.478;2023-11-18T08:23:58;64.05;;;24.23;;
70414;SDS011;57837;52.064;113.478;2023-11-18T08:27:03;56.70;;;23.25;;
70414;SDS011;57837;52.064;113.478;2023-11-18T08:30:08;37.10;;;16.30;;
70414;SDS011;57837;52.064;113.478;2023-11-18T08:33:15;41.43;;;16.40;;
70414;SDS011;57837;52.064;113.478;2023-11-18T08:36:18;40.05;;;15.68;;
70414;SDS011;57837;52.064;113.478;2023-11-18T08:39:22;58.15;;;19.85;;
70414;SDS011;57837;52.064;113.478;2023-11-18T08:42:29;48.65;;;17.02;;
70414;SDS011;57837;52.064;113.478;2023-11-18T08:45:34;52.83;;;18.67;;
70414;SDS011;57837;52.064;113.478;2023-11-18T08:48:39;57.47;;;21.70;;
70414;SDS011;57837;52.064;113.478;2023-11-18T08:51:43;58.70;;;21.75;;
70414;SDS011;57837;52.064;113.478;2023-11-18T08:54:46;76.75;;;31.92;;
70414;SDS011;57837;52.064;113.478;2023-11-18T08:58:09;113.40;;;44.67;;
70414;SDS011;57837;52.064;113.478;2023-11-18T09:01:24;96.07;;;39.95;;
70414;SDS011;57837;52.064;113.478;2023-11-18T09:04:33;136.10;;;55.33;;
70414;SDS011;57837;52.064;113.478;2023-11-18T09:07:37;84.43;;;34.00;;
70414;SDS011;57837;52.064;113.478;2023-11-18T09:10:41;81.03;;;34.67;;
70414;SDS011;57837;52.064;113.478;2023-11-18T09:13:47;120.13;;;48.20;;
70414;SDS011;57837;52.064;113.478;2023-11-18T09:16:54;62.78;;;26.83;;
70414;SDS011;57837;52.064;113.478;2023-11-18T09:19:59;94.83;;;40.60;;
70414;SDS011;57837;52.064;113.478;2023-11-18T09:23:03;112.85;;;46.63;;
70414;SDS011;57837;52.064;113.478;2023-11-18T09:26:08;156.50;;;55.58;;
70414;SDS011;57837;52.064;113.478;2023-11-18T09:29:13;153.15;;;55.28;;
70414;SDS011;57837;52.064;113.478;2023-11-18T09:32:23;109.43;;;39.97;;
70414;SDS011;57837;52.064;113.478;2023-11-18T09:35:29;94.93;;;39.93;;
70414;SDS011;57837;52.064;113.478;2023-11-18T09:38:33;168.25;;;66.57;;
70414;SDS011;57837;52.064;113.478;2023-11-18T09:41:38;146.77;;;61.92;;
70414;SDS011;57837;52.064;113.478;2023-11-18T09:44:43;83.95;;;37.38;;
70414;SDS011;57837;52.064;113.478;2023-11-18T09:47:46;111.82;;;47.28;;
70414;SDS011;57837;52.064;113.478;2023-11-18T09:50:51;81.57;;;32.60;;
70414;SDS011;57837;52.064;113.478;2023-11-18T09:53:59;92.40;;;36.50;;
70414;SDS011;57837;52.064;113.478;2023-11-18T09:57:14;69.68;;;28.45;;
70414;SDS011;57837;52.064;113.478;2023-11-18T10:00:33;95.15;;;39.90;;
70414;SDS011;57837;52.064;113.478;2023-11-18T10:03:42;110.55;;;44.67;;
70414;SDS011;57837;52.064;113.478;2023-11-18T10:06:48;109.83;;;41.63;;
70414;SDS011;57837;52.064;113.478;2023-11-18T10:09:56;124.28;;;50.70;;
70414;SDS011;57837;52.064;113.478;2023-11-18T10:13:00;100.75;;;38.25;;
70414;SDS011;57837;52.064;113.478;2023-11-18T10:16:08;137.18;;;54.28;;
70414;SDS011;57837;52.064;113.478;2023-11-18T10:19:12;148.73;;;58.38;;
70414;SDS011;57837;52.064;113.478;2023-11-18T10:22:27;117.97;;;44.27;;
70414;SDS011;57837;52.064;113.478;2023-11-18T10:25:32;157.15;;;59.53;;
70414;SDS011;57837;52.064;113.478;2023-11-18T10:28:38;128.15;;;45.55;;
70414;SDS011;57837;52.064;113.478;2023-11-18T10:31:41;182.40;;;67.20;;
70414;SDS011;57837;52.064;113.478;2023-11-18T10:34:48;172.75;;;64.20;;
70414;SDS011;57837;52.064;113.478;2023-11-18T10:37:53;190.03;;;70.60;;
70414;SDS011;57837;52.064;113.478;2023-11-18T10:40:58;175.13;;;65.30;;
70414;SDS011;57837;52.064;113.478;2023-11-18T10:44:06;155.43;;;59.72;;
70414;SDS011;57837;52.064;113.478;2023-11-18T10:47:11;216.00;;;79.70;;
70414;SDS011;57837;52.064;113.478;2023-11-18T10:50:16;180.80;;;71.57;;
70414;SDS011;57837;52.064;113.478;2023-11-18T10:53:23;125.33;;;47.10;;
70414;SDS011;57837;52.064;113.478;2023-11-18T10:56:29;133.55;;;49.65;;
70414;SDS011;57837;52.064;113.478;2023-11-18T10:59:35;92.18;;;35.83;;
70414;SDS011;57837;52.064;113.478;2023-11-18T11:02:40;102.60;;;41.35;;
70414;SDS011;57837;52.064;113.478;2023-11-18T11:05:45;112.60;;;42.53;;
70414;SDS011;57837;52.064;113.478;2023-11-18T11:08:49;80.63;;;34.30;;
70414;SDS011;57837;52.064;113.478;2023-11-18T11:11:55;79.43;;;34.05;;
70414;SDS011;57837;52.064;113.478;2023-11-18T11:15:13;102.70;;;40.15;;
70414;SDS011;57837;52.064;113.478;2023-11-18T11:18:25;105.93;;;40.75;;
70414;SDS011;57837;52.064;113.478;2023-11-18T11:21:41;129.40;;;50.88;;
70414;SDS011;57837;52.064;113.478;2023-11-18T11:25:02;107.17;;;43.17;;
70414;SDS011;57837;52.064;113.478;2023-11-18T11:28:27;118.13;;;44.25;;
70414;SDS011;57837;52.064;113.478;2023-11-18T11:32:11;55.28;;;23.23;;
70414;SDS011;57837;52.064;113.478;2023-11-18T11:35:33;101.13;;;38.63;;
70414;SDS011;57837;52.064;113.478;2023-11-18T11:38:41;84.40;;;32.25;;
70414;SDS011;57837;52.064;113.478;2023-11-18T11:41:52;72.73;;;29.13;;
70414;SDS011;57837;52.064;113.478;2023-11-18T11:45:00;98.57;;;37.83;;
70414;SDS011;57837;52.064;113.478;2023-11-18T11:48:07;82.90;;;32.15;;
70414;SDS011;57837;52.064;113.478;2023-11-18T11:51:24;82.35;;;31.25;;
70414;SDS011;57837;52.064;113.478;2023-11-18T11:54:42;66.82;;;26.00;;
70414;SDS011;57837;52.064;113.478;2023-11-18T11:57:52;49.73;;;19.07;;
70414;SDS011;57837;52.064;113.478;2023-11-18T12:01:02;25.52;;;10.48;;
70414;SDS011;57837;52.064;113.478;2023-11-18T12:04:39;30.65;;;11.63;;
70414;SDS011;57837;52.064;113.478;2023-11-18T12:07:45;28.52;;;10.48;;
70414;SDS011;57837;52.064;113.478;2023-11-18T12:10:54;24.05;;;9.95;;
70414;SDS011;57837;52.064;113.478;2023-11-18T12:14:04;27.87;;;10.50;;
70414;SDS011;57837;52.064;113.478;2023-11-18T12:20:56;27.60;;;11.70;;
70414;SDS011;57837;52.064;113.478;2023-11-18T12:24:14;31.67;;;14.20;;
70414;SDS011;57837;52.064;113.478;2023-11-18T12:27:43;52.42;;;20.35;;
70414;SDS011;57837;52.064;113.478;2023-11-18T12:30:58;73.53;;;27.30;;
70414;SDS011;57837;52.064;113.478;2023-11-18T12:34:20;61.60;;;24.63;;
70414;SDS011;57837;52.064;113.478;2023-11-18T12:41:10;57.90;;;19.92;;
70414;SDS011;57837;52.064;113.478;2023-11-18T12:48:16;22.13;;;7.93;;
70414;SDS011;57837;52.064;113.478;2023-11-18T12:51:30;25.92;;;10.05;;
70414;SDS011;57837;52.064;113.478;2023-11-18T12:54:39;25.23;;;9.93;;
70414;SDS011;57837;52.064;113.478;2023-11-18T12:57:46;33.30;;;12.55;;
70414;SDS011;57837;52.064;113.478;2023-11-18T13:00:51;42.38;;;17.95;;
70414;SDS011;57837;52.064;113.478;2023-11-18T13:03:55;42.70;;;16.57;;
70414;SDS011;57837;52.064;113.478;2023-11-18T13:07:00;62.70;;;21.63;;
70414;SDS011;57837;52.064;113.478;2023-11-18T13:10:06;67.55;;;23.10;;
70414;SDS011;57837;52.064;113.478;2023-11-18T13:13:11;51.25;;;17.88;;
70414;SDS011;57837;52.064;113.478;2023-11-18T13:16:17;99.70;;;35.80;;
70414;SDS011;57837;52.064;113.478;2023-11-18T13:19:28;87.20;;;30.23;;
70414;SDS011;57837;52.064;113.478;2023-11-18T13:22:32;96.45;;;31.45;;
70414;SDS011;57837;52.064;113.478;2023-11-18T13:25:49;61.05;;;21.02;;
70414;SDS011;57837;52.064;113.478;2023-11-18T13:28:54;63.60;;;21.02;;
70414;SDS011;57837;52.064;113.478;2023-11-18T13:31:58;49.95;;;18.67;;
70414;SDS011;57837;52.064;113.478;2023-11-18T13:35:02;49.57;;;16.47;;
70414;SDS011;57837;52.064;113.478;2023-11-18T13:38:08;42.00;;;15.55;;
70414;SDS011;57837;52.064;113.478;2023-11-18T13:41:12;34.22;;;13.63;;
70414;SDS011;57837;52.064;113.478;2023-11-18T13:44:35;31.27;;;13.63;;
70414;SDS011;57837;52.064;113.478;2023-11-18T13:47:41;31.85;;;12.77;;
70414;SDS011;57837;52.064;113.478;2023-11-18T13:50:57;30.67;;;12.83;;
70414;SDS011;57837;52.064;113.478;2023-11-18T13:54:02;40.38;;;13.18;;
70414;SDS011;57837;52.064;113.478;2023-11-18T13:57:08;29.73;;;10.82;;
70414;SDS011;57837;52.064;113.478;2023-11-18T14:00:14;25.05;;;9.40;;
70414;SDS011;57837;52.064;113.478;2023-11-18T14:03:19;27.40;;;9.82;;
70414;SDS011;57837;52.064;113.478;2023-11-18T14:06:24;23.03;;;8.83;;
70414;SDS011;57837;52.064;113.478;2023-11-18T14:09:31;19.38;;;8.85;;
70414;SDS011;57837;52.064;113.478;2023-11-18T14:12:39;17.33;;;7.40;;
70414;SDS011;57837;52.064;113.478;2023-11-18T14:15:44;19.40;;;6.60;;
70414;SDS011;57837;52.064;113.478;2023-11-18T14:18:49;15.98;;;6.57;;
70414;SDS011;57837;52.064;113.478;2023-11-18T14:21:55;19.53;;;8.60;;
70414;SDS011;57837;52.064;113.478;2023-11-18T14:24:59;24.38;;;9.55;;
70414;SDS011;57837;52.064;113.478;2023-11-18T14:28:03;26.23;;;10.90;;
70414;SDS011;57837;52.064;113.478;2023-11-18T14:31:07;30.38;;;11.60;;
70414;SDS011;57837;52.064;113.478;2023-11-18T14:34:13;37.20;;;15.35;;
70414;SDS011;57837;52.064;113.478;2023-11-18T14:37:17;38.50;;;13.00;;
70414;SDS011;57837;52.064;113.478;2023-11-18T14:40:21;31.73;;;10.20;;
70414;SDS011;57837;52.064;113.478;2023-11-18T14:43:28;34.83;;;12.52;;
70414;SDS011;57837;52.064;113.478;2023-11-18T14:46:32;37.30;;;14.48;;
70414;SDS011;57837;52.064;113.478;2023-11-18T14:49:37;42.88;;;16.00;;
70414;SDS011;57837;52.064;113.478;2023-11-18T14:52:41;59.67;;;25.43;;
70414;SDS011;57837;52.064;113.478;2023-11-18T14:55:45;55.60;;;21.83;;
70414;SDS011;57837;52.064;113.478;2023-11-18T14:58:48;35.63;;;15.32;;
70414;SDS011;57837;52.064;113.478;2023-11-18T15:01:52;41.55;;;17.27;;
70414;SDS011;57837;52.064;113.478;2023-11-18T15:05:03;29.13;;;12.38;;
70414;SDS011;57837;52.064;113.478;2023-11-18T15:08:11;36.50;;;14.17;;
70414;SDS011;57837;52.064;113.478;2023-11-18T15:11:25;39.92;;;14.27;;
70414;SDS011;57837;52.064;113.478;2023-11-18T15:14:29;34.33;;;12.65;;
70414;SDS011;57837;52.064;113.478;2023-11-18T15:17:32;30.85;;;10.95;;
70414;SDS011;57837;52.064;113.478;2023-11-18T15:20:48;37.63;;;12.88;;
70414;SDS011;57837;52.064;113.478;2023-11-18T15:23:54;51.13;;;16.70;;
70414;SDS011;57837;52.064;113.478;2023-11-18T15:27:04;59.35;;;21.70;;
70414;SDS011;57837;52.064;113.478;2023-11-18T15:30:07;51.25;;;17.95;;
70414;SDS011;57837;52.064;113.478;2023-11-18T15:33:15;55.22;;;18.45;;
70414;SDS011;57837;52.064;113.478;2023-11-18T15:36:18;55.50;;;21.30;;
70414;SDS011;57837;52.064;113.478;2023-11-18T15:39:23;58.77;;;19.50;;
70414;SDS011;57837;52.064;113.478;2023-11-18T15:42:28;48.40;;;17.40;;
70414;SDS011;57837;52.064;113.478;2023-11-18T15:45:33;44.28;;;16.58;;
70414;SDS011;57837;52.064;113.478;2023-11-18T15:48:37;44.38;;;15.77;;
70414;SDS011;57837;52.064;113.478;2023-11-18T15:51:41;42.25;;;12.60;;
70414;SDS011;57837;52.064;113.478;2023-11-18T15:54:45;43.57;;;13.50;;
70414;SDS011;57837;52.064;113.478;2023-11-18T15:57:50;41.97;;;14.43;;
70414;SDS011;57837;52.064;113.478;2023-11-18T16:00:59;38.25;;;12.90;;
70414;SDS011;57837;52.064;113.478;2023-11-18T16:04:04;57.40;;;18.92;;
70414;SDS011;57837;52.064;113.478;2023-11-18T16:07:10;44.95;;;17.63;;
70414;SDS011;57837;52.064;113.478;2023-11-18T16:10:14;50.60;;;15.67;;
70414;SDS011;57837;52.064;113.478;2023-11-18T16:13:21;33.15;;;13.52;;
70414;SDS011;57837;52.064;113.478;2023-11-18T16:16:24;45.22;;;15.38;;
70414;SDS011;57837;52.064;113.478;2023-11-18T16:19:29;45.50;;;15.32;;
70414;SDS011;57837;52.064;113.478;2023-11-18T16:22:33;50.65;;;15.70;;
70414;SDS011;57837;52.064;113.478;2023-11-18T16:25:39;41.42;;;14.40;;
70414;SDS011;57837;52.064;113.478;2023-11-18T16:28:43;56.10;;;19.08;;
70414;SDS011;57837;52.064;113.478;2023-11-18T16:31:49;31.30;;;11.18;;
70414;SDS011;57837;52.064;113.478;2023-11-18T16:34:53;38.15;;;10.95;;
70414;SDS011;57837;52.064;113.478;2023-11-18T16:37:58;25.97;;;9.63;;
70414;SDS011;57837;52.064;113.478;2023-11-18T16:41:03;27.23;;;10.23;;
70414;SDS011;57837;52.064;113.478;2023-11-18T16:44:07;29.88;;;11.30;;
70414;SDS011;57837;52.064;113.478;2023-11-18T16:47:13;21.45;;;10.65;;
70414;SDS011;57837;52.064;113.478;2023-11-18T16:50:19;20.27;;;9.48;;
70414;SDS011;57837;52.064;113.478;2023-11-18T16:53:24;23.38;;;9.25;;
70414;SDS011;57837;52.064;113.478;2023-11-18T16:56:29;12.70;;;4.88;;
70414;SDS011;57837;52.064;113.478;2023-11-18T16:59:33;11.57;;;4.40;;
70414;SDS011;57837;52.064;113.478;2023-11-18T17:02:36;10.73;;;4.53;;
70414;SDS011;57837;52.064;113.478;2023-11-18T17:05:40;15.40;;;5.13;;
70414;SDS011;57837;52.064;113.478;2023-11-18T17:08:46;13.95;;;5.82;;
70414;SDS011;57837;52.064;113.478;2023-11-18T17:11:51;19.13;;;6.78;;
70414;SDS011;57837;52.064;113.478;2023-11-18T17:14:55;25.23;;;8.85;;
70414;SDS011;57837;52.064;113.478;2023-11-18T17:17:59;17.08;;;7.43;;
70414;SDS011;57837;52.064;113.478;2023-11-18T17:21:06;16.93;;;7.00;;
70414;SDS011;57837;52.064;113.478;2023-11-18T17:24:11;16.05;;;6.63;;
70414;SDS011;57837;52.064;113.478;2023-11-18T17:27:15;15.48;;;6.82;;
70414;SDS011;57837;52.064;113.478;2023-11-18T17:30:20;16.75;;;7.72;;
70414;SDS011;57837;52.064;113.478;2023-11-18T17:33:25;27.80;;;11.02;;
70414;SDS011;57837;52.064;113.478;2023-11-18T17:36:34;25.10;;;10.37;;
70414;SDS011;57837;52.064;113.478;2023-11-18T17:39:38;33.33;;;13.27;;
70414;SDS011;57837;52.064;113.478;2023-11-18T17:42:42;33.38;;;12.20;;